createdAt,value
2022-12-17T00:01:05.720Z,13.68
2022-12-17T00:03:48.485Z,13.77
2022-12-17T00:06:34.498Z,15.57
2022-12-17T00:09:20.018Z,12.45
2022-12-17T00:12:05.371Z,12.98
2022-12-17T00:14:52.542Z,12.90
2022-12-17T00:17:39.388Z,12.63
2022-12-17T00:20:25.410Z,13.95
2022-12-17T00:23:17.074Z,13.70
2022-12-17T00:26:02.802Z,12.90
2022-12-17T00:28:48.542Z,12.82
2022-12-17T00:31:35.608Z,15.20
2022-12-17T00:34:21.360Z,14.52
2022-12-17T00:37:06.813Z,14.90
2022-12-17T00:39:59.519Z,15.25
2022-12-17T00:42:45.437Z,13.65
2022-12-17T00:45:31.179Z,14.10
2022-12-17T00:48:18.004Z,14.73
2022-12-17T00:51:03.526Z,14.43
2022-12-17T00:53:49.132Z,14.95
2022-12-17T00:56:31.282Z,15.48
2022-12-17T00:59:16.974Z,13.65
2022-12-17T01:02:02.713Z,14.75
2022-12-17T01:04:49.881Z,14.38
2022-12-17T01:07:35.408Z,13.60
2022-12-17T01:10:20.984Z,13.38
2022-12-17T01:13:06.300Z,13.43
2022-12-17T01:15:51.837Z,12.85
2022-12-17T01:18:38.348Z,13.45
2022-12-17T01:21:25.370Z,15.32
2022-12-17T01:24:10.878Z,14.30
2022-12-17T01:26:56.331Z,14.90
2022-12-17T01:29:41.723Z,14.60
2022-12-17T01:32:27.314Z,13.90
2022-12-17T01:35:12.933Z,14.63
2022-12-17T01:38:00.005Z,13.85
2022-12-17T01:40:45.502Z,13.60
2022-12-17T01:43:31.826Z,12.98
2022-12-17T01:46:32.511Z,13.93
2022-12-17T01:49:18.109Z,13.50
2022-12-17T01:52:12.217Z,15.25
2022-12-17T01:54:59.614Z,14.27
2022-12-17T01:57:46.746Z,12.45
2022-12-17T02:00:35.099Z,13.23
2022-12-17T02:03:21.000Z,12.63
2022-12-17T02:06:13.316Z,13.73
2022-12-17T02:09:07.060Z,12.18
2022-12-17T02:12:03.460Z,12.20
2022-12-17T02:14:56.005Z,13.32
2022-12-17T02:17:48.447Z,12.90
2022-12-17T02:20:42.945Z,12.77
2022-12-17T02:23:39.947Z,14.23
2022-12-17T02:26:31.584Z,13.13
2022-12-17T02:29:20.350Z,13.55
2022-12-17T02:32:07.307Z,13.73
2022-12-17T02:35:02.274Z,12.55
2022-12-17T02:37:48.028Z,11.93
2022-12-17T02:40:34.267Z,12.93
2022-12-17T02:43:20.965Z,13.75
2022-12-17T02:46:09.154Z,11.70
2022-12-17T02:48:55.386Z,12.77
2022-12-17T02:51:41.301Z,12.63
2022-12-17T02:54:27.550Z,11.13
2022-12-17T02:57:12.927Z,13.30
2022-12-17T02:59:58.624Z,11.90
2022-12-17T03:02:45.454Z,11.60
2022-12-17T03:05:46.377Z,11.73
2022-12-17T03:08:31.904Z,12.88
2022-12-17T03:11:17.535Z,12.15
2022-12-17T03:14:03.232Z,11.05
2022-12-17T03:16:48.910Z,11.02
2022-12-17T03:19:38.899Z,13.40
2022-12-17T03:22:24.314Z,9.88
2022-12-17T03:25:10.001Z,11.95
2022-12-17T03:27:55.575Z,13.07
2022-12-17T03:30:45.686Z,11.77
2022-12-17T03:33:34.609Z,11.82
2022-12-17T03:36:21.786Z,11.48
2022-12-17T03:39:07.280Z,11.48
2022-12-17T03:41:52.903Z,10.65
2022-12-17T03:44:38.205Z,11.15
2022-12-17T03:47:23.678Z,11.63
2022-12-17T03:50:09.225Z,12.13
2022-12-17T03:52:55.811Z,12.88
2022-12-17T03:55:41.499Z,11.93
2022-12-17T03:58:27.171Z,13.00
2022-12-17T04:01:12.990Z,12.65
2022-12-17T04:03:59.004Z,12.38
2022-12-17T04:06:44.626Z,12.13
2022-12-17T04:09:31.678Z,11.15
2022-12-17T04:12:17.345Z,12.02
2022-12-17T04:15:02.937Z,10.52
2022-12-17T04:17:48.458Z,11.35
2022-12-17T04:20:34.309Z,11.35
2022-12-17T04:23:19.704Z,10.85
2022-12-17T04:26:06.470Z,10.63
2022-12-17T04:28:52.025Z,11.18
2022-12-17T04:31:37.837Z,10.85
2022-12-17T04:34:22.476Z,10.98
2022-12-17T04:37:08.026Z,11.60
2022-12-17T04:39:53.419Z,12.07
2022-12-17T04:42:40.204Z,12.65
2022-12-17T04:45:26.452Z,11.23
2022-12-17T04:48:19.790Z,10.50
2022-12-17T04:51:05.432Z,10.60
2022-12-17T04:53:52.964Z,10.00
2022-12-17T04:56:38.758Z,10.70
2022-12-17T04:59:25.685Z,10.75
2022-12-17T05:02:11.498Z,11.00
2022-12-17T05:05:02.559Z,11.23
2022-12-17T05:07:48.170Z,11.25
2022-12-17T05:10:33.526Z,10.77
2022-12-17T05:13:20.587Z,10.50
2022-12-17T05:16:07.441Z,11.52
2022-12-17T05:18:52.795Z,11.45
2022-12-17T05:21:38.269Z,11.00
2022-12-17T05:24:24.258Z,11.48
2022-12-17T05:27:09.830Z,10.20
2022-12-17T05:30:11.721Z,9.90
2022-12-17T05:32:58.362Z,10.35
2022-12-17T05:35:44.044Z,11.15
2022-12-17T05:38:30.283Z,11.75
2022-12-17T05:41:17.167Z,10.52
2022-12-17T05:44:03.081Z,9.32
2022-12-17T05:46:48.561Z,10.00
2022-12-17T05:49:35.553Z,10.35
2022-12-17T05:52:29.508Z,10.48
2022-12-17T05:55:15.106Z,10.35
2022-12-17T05:58:00.754Z,11.73
2022-12-17T06:00:46.400Z,9.70
2022-12-17T06:03:32.151Z,10.48
2022-12-17T06:06:19.020Z,10.20
2022-12-17T06:09:04.673Z,10.15
2022-12-17T06:11:50.407Z,11.43
2022-12-17T06:14:35.893Z,10.23
2022-12-17T06:17:21.654Z,10.45
2022-12-17T06:20:09.333Z,10.25
2022-12-17T06:22:55.967Z,10.75
2022-12-17T06:25:41.702Z,11.10
2022-12-17T06:28:27.675Z,11.88
2022-12-17T06:31:14.064Z,11.23
2022-12-17T06:34:00.017Z,11.85
2022-12-17T06:36:45.633Z,11.02
2022-12-17T06:39:44.007Z,12.00
2022-12-17T06:42:29.368Z,12.30
2022-12-17T06:45:15.244Z,12.35
2022-12-17T06:48:12.199Z,12.05
2022-12-17T06:51:03.239Z,12.75
2022-12-17T06:53:48.912Z,13.93
2022-12-17T06:56:34.913Z,12.10
2022-12-17T06:59:20.705Z,12.73
2022-12-17T07:02:07.226Z,14.15
2022-12-17T07:04:52.682Z,14.02
2022-12-17T07:07:38.149Z,15.23
2022-12-17T07:10:24.298Z,14.10
2022-12-17T07:13:10.841Z,14.68
2022-12-17T07:15:56.551Z,15.25
2022-12-17T07:18:41.994Z,13.35
2022-12-17T07:21:27.554Z,13.52
2022-12-17T07:24:13.007Z,13.65
2022-12-17T07:26:58.296Z,14.00
2022-12-17T07:29:56.572Z,13.77
2022-12-17T07:32:42.093Z,13.85
2022-12-17T07:35:27.806Z,12.35
2022-12-17T07:38:19.421Z,14.05
2022-12-17T07:41:04.990Z,13.35
2022-12-17T07:43:53.269Z,13.73
2022-12-17T07:46:42.681Z,14.15
2022-12-17T07:49:28.335Z,13.50
2022-12-17T07:52:13.973Z,16.48
2022-12-17T07:55:04.919Z,13.23
2022-12-17T07:57:50.929Z,18.98
2022-12-17T08:00:36.496Z,16.58
2022-12-17T08:03:23.672Z,16.92
2022-12-17T08:06:09.268Z,23.48
2022-12-17T08:08:54.709Z,13.55
2022-12-17T08:11:40.213Z,13.80
2022-12-17T08:14:25.821Z,14.60
2022-12-17T08:17:11.483Z,12.85
2022-12-17T08:19:58.650Z,14.75
2022-12-17T08:22:43.202Z,13.60
2022-12-17T08:25:29.604Z,14.02
2022-12-17T08:28:48.553Z,15.68
2022-12-17T08:31:22.113Z,17.48
2022-12-17T08:34:08.244Z,14.80
2022-12-17T08:36:55.412Z,13.82
2022-12-17T08:39:40.771Z,14.43
2022-12-17T08:42:26.501Z,13.05
2022-12-17T08:45:12.336Z,15.27
2022-12-17T08:48:02.167Z,12.60
2022-12-17T08:50:49.518Z,15.63
2022-12-17T08:53:36.850Z,15.45
2022-12-17T08:56:23.471Z,16.70
2022-12-17T08:59:09.186Z,15.07
2022-12-17T09:01:54.693Z,15.30
2022-12-17T09:04:40.071Z,17.10
2022-12-17T09:07:25.569Z,16.95
2022-12-17T09:10:12.346Z,21.25
2022-12-17T09:13:04.187Z,17.10
2022-12-17T09:15:53.821Z,16.92
2022-12-17T09:18:40.435Z,15.40
2022-12-17T09:21:26.613Z,17.15
2022-12-17T09:24:12.494Z,17.35
2022-12-17T09:26:59.582Z,13.95
2022-12-17T09:29:45.316Z,15.13
2022-12-17T09:32:30.750Z,17.20
2022-12-17T09:35:16.385Z,12.80
2022-12-17T09:38:01.971Z,15.45
2022-12-17T09:40:49.062Z,14.50
2022-12-17T09:43:47.846Z,17.27
2022-12-17T09:46:50.291Z,16.17
2022-12-17T09:49:38.545Z,16.85
2022-12-17T09:52:38.237Z,15.00
2022-12-17T09:55:35.119Z,15.50
2022-12-17T09:58:22.427Z,16.50
2022-12-17T10:01:12.427Z,17.63
2022-12-17T10:04:00.895Z,16.65
2022-12-17T10:06:47.501Z,16.30
2022-12-17T10:09:35.301Z,18.02
2022-12-17T10:12:31.413Z,18.58
2022-12-17T10:15:17.681Z,17.40
2022-12-17T10:18:04.651Z,17.48
2022-12-17T10:20:55.480Z,19.25
2022-12-17T10:23:43.187Z,17.80
2022-12-17T10:26:28.998Z,19.80
2022-12-17T10:29:28.519Z,20.58
2022-12-17T10:32:17.666Z,17.23
2022-12-17T10:35:06.227Z,19.10
2022-12-17T10:37:54.460Z,18.83
2022-12-17T10:40:44.435Z,18.20
2022-12-17T10:43:45.437Z,18.02
2022-12-17T10:46:34.026Z,17.23
2022-12-17T10:49:24.444Z,16.15
2022-12-17T10:52:18.884Z,19.10
2022-12-17T10:55:15.110Z,17.70
2022-12-17T10:58:02.274Z,17.65
2022-12-17T11:00:50.729Z,19.85
2022-12-17T11:03:48.855Z,18.48
2022-12-17T11:06:42.432Z,17.25
2022-12-17T11:09:37.395Z,17.02
2022-12-17T11:12:30.550Z,17.05
2022-12-17T11:15:22.460Z,20.20
2022-12-17T11:18:11.522Z,17.00
2022-12-17T11:21:06.311Z,17.40
2022-12-17T11:23:56.175Z,18.92
2022-12-17T11:26:45.660Z,17.80
2022-12-17T11:29:32.124Z,17.45
2022-12-17T11:32:42.926Z,17.40
2022-12-17T11:35:37.478Z,16.98
2022-12-17T11:38:33.699Z,19.17
2022-12-17T11:41:26.569Z,17.38
2022-12-17T11:44:20.018Z,16.63
2022-12-17T11:47:16.561Z,16.95
2022-12-17T11:50:11.069Z,17.17
2022-12-17T11:53:08.115Z,17.40
2022-12-17T11:55:57.595Z,16.85
2022-12-17T11:58:51.950Z,19.88
2022-12-17T12:01:49.329Z,17.40
2022-12-17T12:04:48.702Z,18.90
2022-12-17T12:07:41.985Z,17.60
2022-12-17T12:10:38.532Z,17.70
2022-12-17T12:13:34.658Z,17.52
2022-12-17T12:16:30.580Z,16.08
2022-12-17T12:19:30.025Z,15.98
2022-12-17T12:22:28.878Z,19.27
2022-12-17T12:25:36.803Z,18.27
2022-12-17T12:28:30.440Z,15.45
2022-12-17T12:31:25.157Z,15.73
2022-12-17T12:34:15.132Z,19.20
2022-12-17T12:37:03.612Z,19.35
2022-12-17T12:39:54.907Z,18.33
2022-12-17T12:42:44.543Z,19.85
2022-12-17T12:45:49.839Z,21.50
2022-12-17T12:48:47.294Z,19.33
2022-12-17T12:51:38.681Z,16.60
2022-12-17T12:54:42.282Z,19.48
2022-12-17T12:57:48.846Z,18.23
2022-12-17T13:00:47.148Z,18.30
2022-12-17T13:03:39.972Z,18.85
2022-12-17T13:06:08.359Z,19.88
2022-12-17T13:08:37.376Z,20.83
2022-12-17T13:11:29.708Z,36.05
2022-12-17T13:14:03.335Z,25.02
2022-12-17T13:16:43.093Z,22.80
2022-12-17T13:19:21.988Z,21.30
2022-12-17T13:21:50.331Z,20.92
2022-12-17T13:24:26.772Z,19.23
2022-12-17T13:26:56.532Z,26.27
2022-12-17T13:29:30.437Z,18.92
2022-12-17T13:32:20.080Z,19.15
2022-12-17T13:35:10.517Z,19.63
2022-12-17T13:37:46.719Z,18.00
2022-12-17T13:40:34.948Z,17.42
2022-12-17T13:43:04.834Z,18.08
2022-12-17T13:45:39.327Z,18.63
2022-12-17T13:48:07.761Z,19.10
2022-12-17T13:50:36.719Z,18.00
2022-12-17T13:53:12.067Z,18.85
2022-12-17T13:55:40.379Z,19.38
2022-12-17T13:58:23.146Z,17.92
2022-12-17T14:00:51.881Z,18.75
2022-12-17T14:03:43.096Z,17.20
2022-12-17T14:06:13.239Z,19.85
2022-12-17T14:08:41.890Z,19.60
2022-12-17T14:11:29.864Z,17.75
2022-12-17T14:14:00.093Z,19.95
2022-12-17T14:16:28.372Z,19.40
2022-12-17T14:18:58.881Z,17.25
2022-12-17T14:21:28.388Z,18.88
2022-12-17T14:23:57.815Z,17.52
2022-12-17T14:26:26.114Z,16.90
2022-12-17T14:28:57.176Z,16.75
2022-12-17T14:31:29.463Z,15.98
2022-12-17T14:34:07.758Z,15.00
2022-12-17T14:36:37.652Z,16.70
2022-12-17T14:39:17.142Z,15.98
2022-12-17T14:42:03.131Z,15.95
2022-12-17T14:44:33.056Z,15.93
2022-12-17T14:47:18.981Z,18.20
2022-12-17T14:49:59.966Z,16.58
2022-12-17T14:52:38.617Z,19.25
2022-12-17T14:55:28.631Z,17.90
2022-12-17T14:58:18.974Z,17.95
2022-12-17T15:00:50.578Z,19.48
2022-12-17T15:03:23.290Z,18.55
2022-12-17T15:05:58.768Z,20.98
2022-12-17T15:08:27.014Z,20.27
2022-12-17T15:10:55.221Z,19.35
2022-12-17T15:13:23.438Z,18.83
2022-12-17T15:15:51.730Z,20.90
2022-12-17T15:18:21.335Z,20.02
2022-12-17T15:20:49.725Z,20.27
2022-12-17T15:23:19.852Z,20.45
2022-12-17T15:25:49.479Z,21.42
2022-12-17T15:28:18.808Z,25.58
2022-12-17T15:30:47.625Z,20.25
2022-12-17T15:33:16.126Z,22.40
2022-12-17T15:35:45.637Z,25.27
2022-12-17T15:38:14.329Z,20.65
2022-12-17T15:40:42.648Z,31.30
2022-12-17T15:43:11.649Z,21.08
2022-12-17T15:45:41.206Z,21.02
2022-12-17T15:48:10.176Z,22.27
2022-12-17T15:50:38.593Z,21.67
2022-12-17T15:53:09.384Z,29.92
2022-12-17T15:55:38.065Z,26.85
2022-12-17T15:58:07.079Z,24.40
2022-12-17T16:00:35.727Z,25.42
2022-12-17T16:03:04.102Z,21.67
2022-12-17T16:05:32.576Z,22.70
2022-12-17T16:08:02.640Z,25.85
2022-12-17T16:10:32.804Z,29.88
2022-12-17T16:13:00.885Z,28.27
2022-12-17T16:15:29.201Z,33.25
2022-12-17T16:17:57.320Z,26.50
2022-12-17T16:20:26.093Z,26.80
2022-12-17T16:22:54.351Z,28.77
2022-12-17T16:25:22.430Z,35.47
2022-12-17T16:27:51.894Z,41.15
2022-12-17T16:30:20.214Z,23.27
2022-12-17T16:32:48.576Z,30.45
2022-12-17T16:35:16.731Z,31.42
2022-12-17T16:37:45.111Z,29.52
2022-12-17T16:40:13.782Z,34.00
2022-12-17T16:42:41.884Z,36.70
2022-12-17T16:45:12.031Z,29.05
2022-12-17T16:47:40.156Z,28.40
2022-12-17T16:50:08.706Z,36.35
2022-12-17T16:52:36.923Z,32.78
2022-12-17T16:55:05.403Z,34.45
2022-12-17T16:57:33.672Z,29.63
2022-12-17T17:00:01.934Z,29.27
2022-12-17T17:02:32.991Z,31.10
2022-12-17T17:05:02.077Z,30.83
2022-12-17T17:07:30.582Z,32.13
2022-12-17T17:09:58.772Z,31.80
2022-12-17T17:12:27.049Z,29.90
2022-12-17T17:14:55.154Z,36.63
2022-12-17T17:17:54.504Z,42.28
2022-12-17T17:20:14.012Z,38.10
2022-12-17T17:22:42.241Z,36.38
2022-12-17T17:25:10.523Z,35.28
2022-12-17T17:27:38.765Z,34.38
2022-12-17T17:30:08.206Z,48.67
2022-12-17T17:32:36.434Z,33.38
2022-12-17T17:35:05.658Z,30.65
2022-12-17T17:37:35.568Z,26.58
2022-12-17T17:40:04.085Z,28.77
2022-12-17T17:42:32.366Z,26.70
2022-12-17T17:45:01.286Z,28.92
2022-12-17T17:47:30.196Z,29.02
2022-12-17T17:49:59.173Z,29.42
2022-12-17T17:52:27.465Z,27.48
2022-12-17T17:54:57.387Z,30.23
2022-12-17T17:57:25.639Z,29.77
2022-12-17T17:59:53.880Z,29.08
2022-12-17T18:02:22.443Z,28.70
2022-12-17T18:04:50.822Z,30.77
2022-12-17T18:07:27.293Z,27.48
2022-12-17T18:09:59.816Z,28.80
2022-12-17T18:12:45.513Z,30.48
2022-12-17T18:15:15.737Z,29.40
2022-12-17T18:17:45.564Z,35.25
2022-12-17T18:20:14.670Z,29.40
2022-12-17T18:22:43.346Z,30.58
2022-12-17T18:25:13.076Z,30.35
2022-12-17T18:27:41.542Z,29.02
2022-12-17T18:30:10.792Z,27.42
2022-12-17T18:32:39.052Z,28.63
2022-12-17T18:35:08.371Z,30.15
2022-12-17T18:37:36.702Z,31.65
2022-12-17T18:40:05.616Z,35.10
2022-12-17T18:42:52.932Z,31.27
2022-12-17T18:45:21.393Z,32.78
2022-12-17T18:47:51.231Z,27.65
2022-12-17T18:50:19.483Z,28.02
2022-12-17T18:52:47.712Z,27.73
2022-12-17T18:55:16.365Z,30.40
2022-12-17T18:57:45.951Z,30.67
2022-12-17T19:00:15.268Z,28.92
2022-12-17T19:02:44.307Z,27.42
2022-12-17T19:05:12.685Z,30.48
2022-12-17T19:07:40.882Z,27.92
2022-12-17T19:10:09.919Z,30.17
2022-12-17T19:12:38.079Z,30.98
2022-12-17T19:15:08.867Z,28.23
2022-12-17T19:17:37.258Z,28.63
2022-12-17T19:20:06.253Z,33.05
2022-12-17T19:22:34.572Z,33.35
2022-12-17T19:25:02.898Z,34.63
2022-12-17T19:27:31.052Z,33.53
2022-12-17T19:29:59.449Z,32.13
2022-12-17T19:32:29.176Z,33.85
2022-12-17T19:34:57.995Z,32.53
2022-12-17T19:37:26.316Z,33.55
2022-12-17T19:39:54.467Z,34.40
2022-12-17T19:42:25.546Z,30.48
2022-12-17T19:44:54.847Z,34.10
2022-12-17T19:47:23.954Z,28.33
2022-12-17T19:49:53.795Z,26.20
2022-12-17T19:52:21.943Z,26.42
2022-12-17T19:54:50.619Z,27.42
2022-12-17T19:57:18.804Z,26.13
2022-12-17T19:59:47.263Z,30.88
2022-12-17T20:02:17.562Z,28.58
2022-12-17T20:04:45.842Z,27.60
2022-12-17T20:07:15.393Z,27.48
2022-12-17T20:09:44.700Z,26.38
2022-12-17T20:12:13.328Z,26.40
2022-12-17T20:14:41.451Z,27.65
2022-12-17T20:17:10.464Z,28.77
2022-12-17T20:19:38.689Z,28.50
2022-12-17T20:22:08.387Z,31.33
2022-12-17T20:24:39.275Z,31.20
2022-12-17T20:27:08.070Z,32.15
2022-12-17T20:29:36.189Z,30.05
2022-12-17T20:32:05.513Z,30.80
2022-12-17T20:34:33.748Z,34.58
2022-12-17T20:37:01.965Z,37.53
2022-12-17T20:39:30.181Z,30.17
2022-12-17T20:41:59.637Z,30.35
2022-12-17T20:44:27.947Z,29.50
2022-12-17T20:46:56.130Z,26.90
2022-12-17T20:49:24.280Z,31.85
2022-12-17T20:51:52.382Z,34.42
2022-12-17T20:54:22.006Z,33.42
2022-12-17T20:56:50.142Z,32.95
2022-12-17T20:59:20.379Z,32.03
2022-12-17T21:01:55.603Z,29.80
2022-12-17T21:04:25.009Z,31.98
2022-12-17T21:06:53.797Z,35.10
2022-12-17T21:09:22.953Z,30.17
2022-12-17T21:11:51.550Z,32.78
2022-12-17T21:14:21.365Z,32.97
2022-12-17T21:16:49.591Z,30.42
2022-12-17T21:19:20.254Z,31.55
2022-12-17T21:21:48.686Z,32.00
2022-12-17T21:24:16.820Z,31.88
2022-12-17T21:26:46.946Z,31.25
2022-12-17T21:29:15.888Z,28.85
2022-12-17T21:31:46.602Z,30.35
2022-12-17T21:34:17.755Z,30.20
2022-12-17T21:36:46.139Z,32.88
2022-12-17T21:39:15.528Z,33.78
2022-12-17T21:42:07.061Z,37.25
2022-12-17T21:44:35.779Z,36.83
2022-12-17T21:47:05.416Z,33.38
2022-12-17T21:49:34.051Z,36.13
2022-12-17T21:52:03.042Z,33.58
2022-12-17T21:54:31.324Z,33.92
2022-12-17T21:56:59.377Z,33.05
2022-12-17T21:59:27.517Z,33.58
2022-12-17T22:01:57.486Z,33.20
2022-12-17T22:04:27.579Z,34.10
2022-12-17T22:07:00.585Z,35.17
2022-12-17T22:10:07.814Z,40.97
2022-12-17T22:12:49.327Z,35.60
2022-12-17T22:15:17.683Z,33.20
2022-12-17T22:17:46.375Z,34.53
2022-12-17T22:20:17.462Z,35.75
2022-12-17T22:22:46.159Z,34.85
2022-12-17T22:25:14.583Z,35.03
2022-12-17T22:27:43.334Z,33.85
2022-12-17T22:30:31.744Z,33.17
2022-12-17T22:33:06.609Z,32.13
2022-12-17T22:37:14.568Z,31.98
2022-12-17T22:42:19.609Z,32.80
2022-12-17T22:44:44.343Z,34.53
2022-12-17T22:44:48.866Z,35.25
2022-12-17T22:47:09.790Z,33.78
2022-12-17T22:49:39.331Z,34.83
2022-12-17T22:52:09.020Z,32.85
2022-12-17T22:54:37.260Z,32.60
2022-12-17T22:57:34.804Z,35.30
2022-12-17T22:59:53.982Z,33.67
2022-12-17T23:02:22.184Z,30.80
2022-12-17T23:04:50.390Z,31.40
2022-12-17T23:07:19.962Z,31.45
2022-12-17T23:09:48.199Z,32.45
2022-12-17T23:12:39.054Z,40.40
2022-12-17T23:15:08.195Z,35.20
2022-12-17T23:17:36.490Z,33.60
2022-12-17T23:20:05.947Z,36.13
2022-12-17T23:22:36.654Z,52.33
2022-12-17T23:25:13.743Z,44.20
2022-12-17T23:27:41.957Z,38.83
2022-12-17T23:30:11.449Z,36.90
2022-12-17T23:32:40.241Z,36.72
2022-12-17T23:35:09.773Z,35.53
2022-12-17T23:37:40.252Z,36.00
2022-12-17T23:40:09.913Z,32.67
2022-12-17T23:42:38.485Z,31.60
2022-12-17T23:45:07.730Z,32.03
2022-12-17T23:47:35.892Z,31.75
2022-12-17T23:50:04.066Z,33.20
2022-12-17T23:52:32.287Z,32.10
2022-12-17T23:55:02.180Z,30.95
2022-12-17T23:57:30.291Z,30.30
2022-12-17T23:59:58.444Z,30.85
